Time;durP1;ratioP1;P1;durP2;ratioP2;P2;SDS_P1;SDS_P2;PMS_P1;PMS_P2;Temp;Humidity;BMP_temperature;BMP_pressure;BME280_temperature;BME280_humidity;BME280_pressure;Samples;Min_cycle;Max_cycle;Signal;HPM_P1;HPM_P2
2021/03/21 00:01:49;;;;;;;9.50;3.50;;;3.30;97.30;;;4.30;86.64;98858.16;5096730;28;20541;-87
2021/03/21 00:08:21;;;;;;;7.87;4.13;;;3.50;97.70;;;4.30;88.64;98848.63;5096822;28;20419;-87
2021/03/21 00:14:55;;;;;;;5.97;3.10;;;3.50;98.20;;;4.41;88.70;98838.16;5096570;28;20452;-88
2021/03/21 00:21:29;;;;;;;7.80;3.60;;;3.50;96.80;;;4.38;87.51;98824.66;5096520;28;20457;-88
2021/03/21 00:28:08;;;;;;;6.17;3.57;;;3.40;97.60;;;4.10;89.91;98825.31;5096382;28;20415;-87
2021/03/21 00:34:35;;;;;;;5.30;3.13;;;3.30;98.50;;;4.15;90.18;98831.75;5096213;28;20423;-88
2021/03/21 00:41:14;;;;;;;4.33;3.40;;;3.30;98.40;;;4.19;90.84;98822.81;5096529;28;20424;-87
2021/03/21 00:48:14;;;;;;;5.53;3.50;;;3.30;98.50;;;4.16;92.63;98811.88;5096254;28;20442;-87
2021/03/21 00:54:48;;;;;;;4.03;2.50;;;3.30;99.30;;;4.09;92.82;98806.41;5095879;28;20445;-88
2021/03/21 01:01:30;;;;;;;5.43;2.83;;;3.30;99.00;;;4.07;92.23;98790.16;5096046;28;20422;-87
2021/03/21 01:08:16;;;;;;;3.87;2.87;;;3.30;98.80;;;4.01;90.82;98788.09;5095825;28;20515;-87
2021/03/21 01:14:50;;;;;;;4.30;2.80;;;3.10;98.60;;;4.06;92.06;98785.97;5095697;28;20423;-87
2021/03/21 01:21:26;;;;;;;3.30;2.43;;;3.20;98.60;;;4.08;92.99;98768.53;5095500;28;20442;-87
2021/03/21 01:27:57;;;;;;;3.20;2.53;;;3.30;99.10;;;4.20;92.51;98749.38;5095280;28;20511;-87
2021/03/21 01:34:30;;;;;;;3.50;2.43;;;3.40;98.90;;;4.21;92.34;98751.00;5095776;28;20550;-87
2021/03/21 01:41:13;;;;;;;3.80;2.77;;;3.40;99.10;;;4.18;93.03;98759.03;5094868;28;20427;-87
2021/03/21 01:47:55;;;;;;;5.67;3.17;;;3.50;99.10;;;4.10;93.53;98745.91;5094800;28;20427;-87
2021/03/21 01:54:25;;;;;;;3.40;2.70;;;3.30;99.60;;;4.24;93.44;98744.75;5094769;28;20423;-87
2021/03/21 02:01:02;;;;;;;5.10;2.97;;;3.50;98.90;;;4.30;93.79;98726.13;5094785;28;20427;-87
2021/03/21 02:08:18;;;;;;;6.33;2.83;;;3.30;99.00;;;4.17;93.99;98728.94;5094961;28;20438;-87
2021/03/21 02:15:11;;;;;;;7.17;4.30;;;3.20;99.40;;;4.01;94.03;98731.19;5094128;28;20461;-87
2021/03/21 02:21:45;;;;;;;7.13;2.77;;;3.20;99.20;;;4.07;94.07;98738.41;5094091;28;20422;-88
2021/03/21 02:28:38;;;;;;;4.43;2.73;;;3.30;99.90;;;4.05;94.23;98735.16;5094109;28;20548;-87
2021/03/21 02:35:22;;;;;;;4.10;2.47;;;3.20;99.80;;;4.18;95.85;98745.28;5093955;28;20785;-87
2021/03/21 02:51:09;;;;;;;4.00;2.90;;;3.30;99.40;;;4.15;95.53;98730.84;5093949;28;20465;-87
2021/03/21 02:57:49;;;;;;;2.63;2.20;;;3.40;99.90;;;4.16;95.57;98711.78;5093920;28;20866;-87
2021/03/21 03:04:26;;;;;;;4.37;2.20;;;3.30;99.90;;;4.13;96.13;98700.88;5093491;28;20443;-87
2021/03/21 03:11:40;;;;;;;3.77;2.60;;;3.30;99.50;;;4.16;95.64;98683.31;5093561;28;20805;-87
2021/03/21 03:18:34;;;;;;;3.07;2.37;;;3.40;99.90;;;4.21;96.95;98669.97;5093132;28;20510;-87
2021/03/21 03:25:18;;;;;;;3.63;2.40;;;3.40;99.90;;;4.17;96.59;98653.88;5093607;28;20422;-87
2021/03/21 03:32:00;;;;;;;3.60;2.27;;;3.40;99.90;;;4.14;98.37;98630.84;5093124;28;20778;-87
2021/03/21 03:38:36;;;;;;;2.83;2.30;;;3.40;99.90;;;4.26;96.67;98627.22;5092798;28;20921;-87
2021/03/21 03:45:18;;;;;;;3.43;2.77;;;3.50;99.60;;;4.35;95.06;98629.00;5092731;28;20450;-87
2021/03/21 03:52:16;;;;;;;4.40;3.00;;;3.60;99.90;;;4.37;95.81;98650.38;5092774;28;20424;-87
2021/03/21 03:59:06;;;;;;;3.80;2.63;;;3.70;99.90;;;4.41;96.70;98638.00;5092864;28;20411;-88
2021/03/21 04:05:48;;;;;;;4.87;3.30;;;3.70;99.80;;;4.50;96.00;98650.97;5092606;28;20410;-87
2021/03/21 04:12:32;;;;;;;6.90;4.93;;;3.80;98.60;;;4.62;92.38;98653.44;5092565;28;20415;-87
2021/03/21 04:19:11;;;;;;;9.23;4.30;;;4.00;97.70;;;4.65;90.59;98642.81;5092419;28;21060;-88
2021/03/21 04:25:50;;;;;;;8.57;4.63;;;3.90;98.50;;;4.69;89.07;98644.16;5092518;28;20523;-88
2021/03/21 04:32:34;;;;;;;8.00;5.57;;;4.00;97.90;;;4.74;88.93;98635.03;5092590;28;20533;-87
2021/03/21 04:39:06;;;;;;;8.80;4.90;;;4.00;97.50;;;4.72;86.91;98634.34;5093503;28;20469;-88
2021/03/21 04:45:50;;;;;;;7.50;5.20;;;3.90;97.60;;;4.71;87.57;98624.13;5095669;28;20466;-87
2021/03/21 04:52:53;;;;;;;6.47;4.83;;;4.00;97.90;;;4.68;87.44;98629.59;5095981;28;20418;-87
2021/03/21 04:59:26;;;;;;;7.23;5.13;;;3.90;97.90;;;4.67;88.47;98627.94;5095727;28;20439;-87
2021/03/21 05:06:01;;;;;;;7.27;5.47;;;3.90;98.30;;;4.65;89.36;98624.69;5095715;28;20464;-88
2021/03/21 05:12:41;;;;;;;8.63;5.00;;;3.90;98.50;;;4.63;89.43;98617.03;5095520;28;20503;-87
2021/03/21 05:19:24;;;;;;;7.20;4.90;;;3.90;98.70;;;4.65;90.45;98619.50;5095252;28;20426;-87
2021/03/21 05:26:06;;;;;;;8.63;5.40;;;3.80;99.30;;;4.72;91.36;98613.63;5095346;28;20444;-87
2021/03/21 05:32:37;;;;;;;9.30;5.50;;;3.90;99.90;;;4.67;94.64;98620.19;5095462;28;20418;-88
2021/03/21 05:39:23;;;;;;;6.60;3.80;;;4.00;99.90;;;4.66;95.82;98621.13;5095157;28;20454;-87
2021/03/21 05:46:26;;;;;;;6.97;4.43;;;3.90;99.90;;;4.64;100.00;98607.50;5094955;28;20466;-87
2021/03/21 05:53:50;;;;;;;7.20;4.67;;;3.80;99.90;;;4.70;99.37;98612.97;5094621;28;20540;-87
2021/03/21 06:01:33;;;;;;;6.90;4.83;;;4.00;99.90;;;4.72;99.00;98612.84;5094569;28;20915;-88
2021/03/21 06:08:30;;;;;;;39.20;16.37;;;3.90;99.90;;;4.64;100.00;98625.63;5094415;28;20860;-85
2021/03/21 06:15:58;;;;;;;7.53;4.73;;;4.00;99.90;;;4.72;100.00;98624.00;5094394;28;20939;-86
2021/03/21 06:23:10;;;;;;;5.37;4.30;;;3.90;99.90;;;4.78;100.00;98613.09;5094147;28;20410;-85
2021/03/21 06:30:18;;;;;;;6.83;5.03;;;4.10;99.90;;;4.82;100.00;98618.84;5093943;28;20440;-86
2021/03/21 06:36:59;;;;;;;9.63;4.90;;;4.10;99.90;;;4.88;100.00;98618.28;5093935;28;20419;-86
2021/03/21 06:44:12;;;;;;;6.67;4.90;;;4.00;99.90;;;4.94;100.00;98605.59;5093951;28;20477;-85
2021/03/21 06:51:26;;;;;;;7.20;5.27;;;4.20;99.90;;;4.96;100.00;98589.91;5093654;28;20466;-86
2021/03/21 06:58:58;;;;;;;5.07;3.33;;;4.10;99.90;;;4.98;100.00;98583.63;5093554;28;20415;-85
2021/03/21 07:06:18;;;;;;;8.60;4.70;;;4.20;99.90;;;5.03;100.00;98578.03;5093713;28;20462;-86
2021/03/21 07:13:49;;;;;;;8.63;4.33;;;4.40;99.90;;;5.07;100.00;98567.22;5093641;28;20418;-85
2021/03/21 07:21:30;;;;;;;7.07;4.00;;;4.50;99.90;;;5.14;100.00;98551.94;5093052;28;20423;-86
2021/03/21 07:28:38;;;;;;;4.90;3.90;;;4.60;99.90;;;5.32;100.00;98559.81;5093201;28;20437;-86
2021/03/21 07:39:50;;;;;;;6.97;4.33;;;4.70;99.90;;;5.51;100.00;98559.75;5093040;28;20849;-86
2021/03/21 07:50:41;;;;;;;6.27;4.77;;;4.80;99.90;;;5.50;100.00;98571.91;5092894;28;20505;-87
2021/03/21 07:57:19;;;;;;;5.93;4.40;;;4.80;99.90;;;5.46;100.00;98567.94;5093383;28;20465;-86
2021/03/21 08:04:02;;;;;;;9.37;5.13;;;4.80;99.90;;;5.52;100.00;98574.34;5092625;28;20441;-86
2021/03/21 08:10:40;;;;;;;5.43;4.23;;;4.80;99.90;;;5.53;100.00;98563.84;5092747;28;20827;-87
2021/03/21 08:17:22;;;;;;;5.20;4.10;;;4.80;99.90;;;5.67;100.00;98556.53;5096794;28;20438;-87
2021/03/21 08:23:52;;;;;;;4.93;3.30;;;5.10;99.90;;;5.80;100.00;98570.00;5096373;28;20526;-86
2021/03/21 08:30:46;;;;;;;5.80;3.30;;;5.10;99.90;;;5.85;100.00;98558.22;5096420;28;20583;-85
2021/03/21 08:37:32;;;;;;;6.47;4.27;;;5.20;99.90;;;5.91;100.00;98559.44;5095928;28;20492;-84
2021/03/21 08:44:21;;;;;;;7.20;5.00;;;5.30;99.90;;;6.06;100.00;98556.25;5096088;28;21023;-85
2021/03/21 08:51:29;;;;;;;9.17;5.50;;;5.50;99.90;;;6.20;100.00;98536.75;5096221;28;20458;-86
2021/03/21 08:58:22;;;;;;;6.07;4.20;;;5.60;99.90;;;6.33;100.00;98547.56;5095937;28;20529;-86
2021/03/21 09:05:07;;;;;;;6.87;4.60;;;5.70;99.90;;;6.41;100.00;98557.22;5095458;28;20411;-86
2021/03/21 09:11:41;;;;;;;6.67;4.47;;;5.70;99.90;;;6.49;100.00;98547.72;5095485;28;20508;-86
2021/03/21 09:18:28;;;;;;;7.13;5.17;;;6.00;99.90;;;6.61;100.00;98542.31;5095255;28;20417;-85
2021/03/21 09:25:13;;;;;;;6.10;4.53;;;6.00;99.90;;;6.70;100.00;98524.03;5094892;28;20446;-86
2021/03/21 09:31:50;;;;;;;22.37;10.00;;;6.20;99.90;;;6.88;100.00;98522.22;5095561;28;20510;-87
2021/03/21 09:38:31;;;;;;;6.03;5.07;;;6.30;99.90;;;7.02;100.00;98544.25;5094919;28;20415;-86
2021/03/21 09:45:07;;;;;;;6.00;4.20;;;6.40;99.90;;;7.10;100.00;98554.72;5094845;28;20868;-86
2021/03/21 09:51:54;;;;;;;5.40;3.30;;;6.50;99.90;;;7.14;100.00;98561.25;5094967;28;20587;-85
2021/03/21 09:58:43;;;;;;;5.07;3.30;;;6.40;99.90;;;7.05;100.00;98551.72;5095091;28;20427;-86
2021/03/21 10:05:33;;;;;;;4.13;3.03;;;6.40;99.90;;;7.03;100.00;98541.50;5094686;28;20477;-86
2021/03/21 10:12:11;;;;;;;4.43;2.53;;;6.40;99.90;;;6.98;100.00;98538.53;5094630;28;20961;-86
2021/03/21 10:18:50;;;;;;;2.80;2.40;;;6.20;99.90;;;6.99;100.00;98524.56;5094404;28;20465;-86
2021/03/21 10:26:06;;;;;;;2.87;2.47;;;6.40;99.90;;;7.05;100.00;98523.94;5094390;28;20830;-87
2021/03/21 10:32:37;;;;;;;4.00;2.50;;;6.30;99.90;;;7.12;100.00;98520.72;5094314;28;20423;-86
2021/03/21 10:39:08;;;;;;;3.63;2.80;;;6.40;99.90;;;7.17;100.00;98503.72;5094089;28;20474;-87
2021/03/21 10:45:52;;;;;;;4.80;2.90;;;6.50;99.90;;;7.27;100.00;98503.59;5093779;28;20549;-87
2021/03/21 10:52:31;;;;;;;6.70;3.57;;;6.60;99.90;;;7.39;100.00;98505.75;5093689;28;20528;-87
2021/03/21 10:59:26;;;;;;;5.23;3.83;;;6.90;99.90;;;7.44;100.00;98518.31;5093774;28;20427;-87
2021/03/21 11:06:01;;;;;;;8.07;3.37;;;6.90;99.90;;;7.38;100.00;98522.38;5093648;28;20777;-87
2021/03/21 11:12:39;;;;;;;9.10;4.00;;;6.80;99.90;;;7.38;100.00;98543.19;5093394;28;20449;-87
2021/03/21 11:19:16;;;;;;;99.57;45.80;;;6.80;99.90;;;7.47;100.00;98562.22;5093467;28;20907;-90
2021/03/21 11:25:48;;;;;;;7.90;4.50;;;6.80;99.90;;;7.46;100.00;98538.00;5093340;28;20870;-86
2021/03/21 11:32:29;;;;;;;6.43;4.33;;;6.80;99.90;;;7.54;100.00;98551.06;5092979;28;20470;-86
2021/03/21 11:39:22;;;;;;;5.87;4.00;;;6.80;99.90;;;7.48;100.00;98536.06;5093139;28;20801;-86
2021/03/21 11:45:53;;;;;;;3.80;2.90;;;6.90;99.90;;;7.73;100.00;98526.59;5092722;28;20481;-87
2021/03/21 11:52:47;;;;;;;5.00;2.87;;;7.10;99.90;;;7.88;100.00;98519.00;5093005;28;20970;-87
2021/03/21 11:59:44;;;;;;;7.27;4.13;;;7.30;99.90;;;8.07;100.00;98513.50;5092928;28;20411;-86
2021/03/21 12:06:25;;;;;;;6.50;3.70;;;7.50;99.90;;;8.14;99.00;98506.69;5092997;28;20423;-86
2021/03/21 12:12:53;;;;;;;4.67;2.87;;;7.60;99.90;;;8.26;97.48;98510.59;5092780;28;20410;-87
2021/03/21 12:19:32;;;;;;;7.73;2.63;;;7.70;99.90;;;8.30;94.68;98511.13;5093010;28;20423;-87
2021/03/21 12:26:22;;;;;;;5.50;2.20;;;7.70;99.90;;;8.45;91.51;98493.88;5092646;28;21022;-86
2021/03/21 12:33:14;;;;;;;5.50;2.10;;;7.90;99.90;;;8.64;89.09;98500.56;5092581;28;20439;-87
2021/03/21 12:39:47;;;;;;;2.23;1.90;;;8.00;99.90;;;8.68;86.68;98499.28;5092629;28;20422;-87
2021/03/21 12:50:40;;;;;;;3.07;2.60;;;8.20;99.20;;;8.86;84.13;98460.78;5092547;28;20810;-88
2021/03/21 12:57:15;;;;;;;2.53;1.70;;;8.40;99.10;;;8.96;82.65;98458.78;5092276;28;20885;-88
2021/03/21 13:03:50;;;;;;;2.67;2.00;;;8.50;98.80;;;9.07;82.39;98459.25;5095931;28;20454;-87
2021/03/21 13:10:18;;;;;;;2.83;1.83;;;8.50;98.50;;;9.14;81.75;98454.19;5095934;28;20788;-87
2021/03/21 13:16:54;;;;;;;3.20;1.93;;;8.60;98.60;;;9.10;80.87;98451.09;5095972;28;20427;-87
2021/03/21 13:23:28;;;;;;;2.07;1.63;;;8.50;98.70;;;9.30;81.76;98445.50;5095698;28;20422;-87
2021/03/21 13:30:04;;;;;;;3.93;1.83;;;8.60;98.30;;;9.26;79.13;98426.75;5095515;28;20507;-88
2021/03/21 13:36:35;;;;;;;3.63;1.50;;;8.70;98.40;;;9.40;80.18;98415.63;5095461;28;20414;-87
2021/03/21 13:43:05;;;;;;;2.90;1.90;;;8.80;98.40;;;9.33;79.94;98416.47;5095374;28;20894;-88
2021/03/21 13:54:38;;;;;;;2.67;1.30;;;8.70;99.20;;;9.39;82.39;98431.44;5075289;28;20408;-88
2021/03/21 14:01:13;;;;;;;1.63;1.40;;;8.90;98.70;;;9.29;77.49;98430.81;5074812;28;20792;-87
2021/03/21 14:07:48;;;;;;;3.63;1.50;;;8.80;97.40;;;9.63;76.77;98412.22;5074806;28;20462;-88
2021/03/21 14:14:24;;;;;;;6.10;1.73;;;9.00;95.80;;;9.94;73.71;98405.16;5074621;28;20412;-87
2021/03/21 14:20:54;;;;;;;1.60;1.30;;;9.60;96.20;;;9.96;70.53;98411.84;5074344;28;20470;-88
2021/03/21 14:27:25;;;;;;;4.37;1.90;;;9.20;95.80;;;10.02;71.62;98410.34;5074191;28;20470;-87
2021/03/21 14:34:00;;;;;;;4.93;1.70;;;9.40;96.00;;;10.02;71.56;98405.13;5074196;28;20435;-87
2021/03/21 14:40:36;;;;;;;4.30;1.67;;;9.50;96.00;;;9.80;69.67;98411.13;5073807;28;20861;-87
2021/03/21 14:47:11;;;;;;;2.60;1.50;;;9.20;95.80;;;9.93;72.52;98406.16;5073960;28;20538;-87
2021/03/21 14:54:00;;;;;;;6.27;2.10;;;9.30;95.90;;;9.79;70.43;98399.09;5094020;28;20422;-87
2021/03/21 15:00:36;;;;;;;7.20;1.93;;;9.30;95.20;;;9.73;68.28;98399.75;5094227;28;20508;-88
2021/03/21 15:07:11;;;;;;;4.90;2.10;;;9.10;95.30;;;9.87;69.21;98378.13;5093987;28;20542;-87
2021/03/21 15:13:47;;;;;;;7.17;1.60;;;9.20;95.30;;;9.66;67.70;98396.22;5094202;28;20919;-87
2021/03/21 15:20:18;;;;;;;7.23;2.73;;;9.00;96.00;;;9.67;69.94;98377.78;5093707;28;20419;-87
2021/03/21 15:26:46;;;;;;;3.43;1.80;;;9.00;95.40;;;9.60;70.98;98382.06;5093354;28;20837;-87
2021/03/21 15:33:15;;;;;;;13.43;2.47;;;8.90;95.20;;;9.32;70.22;98388.72;5093385;28;20415;-88
2021/03/21 15:39:50;;;;;;;12.13;2.27;;;8.70;95.90;;;9.35;71.96;98373.53;5094621;28;20466;-87
2021/03/21 15:46:27;;;;;;;6.10;1.67;;;8.70;96.00;;;9.40;73.08;98376.47;5093944;28;20816;-87
2021/03/21 15:53:04;;;;;;;11.77;1.77;;;8.80;96.10;;;9.33;71.57;98370.31;5095547;28;20462;-87
2021/03/21 15:59:39;;;;;;;14.63;1.70;;;8.70;95.80;;;9.42;72.85;98374.50;5093102;28;20451;-86
2021/03/21 16:06:16;;;;;;;8.07;2.20;;;8.80;96.00;;;9.50;71.87;98392.72;5092504;28;20427;-85
2021/03/21 16:12:51;;;;;;;6.70;2.00;;;9.00;95.80;;;9.63;72.03;98407.00;5092500;28;20482;-80
2021/03/21 16:19:19;;;;;;;7.30;2.27;;;9.00;96.20;;;9.59;73.39;98412.56;5092723;28;20454;-84
2021/03/21 16:25:48;;;;;;;16.27;5.30;;;8.70;96.20;;;9.26;75.63;98411.09;5092683;28;21030;-84
2021/03/21 16:32:23;;;;;;;10.50;2.27;;;8.60;96.50;;;9.00;74.33;98411.34;5092447;28;20466;-80
2021/03/21 16:38:58;;;;;;;28.43;2.23;;;8.30;96.20;;;8.93;73.46;98414.78;5096266;28;20780;-80
2021/03/21 16:45:35;;;;;;;9.17;2.10;;;8.10;96.40;;;8.71;74.40;98425.94;5096109;28;20469;-80
2021/03/21 16:57:09;;;;;;;11.03;2.67;;;7.90;96.40;;;8.45;75.47;98437.38;5075847;28;20419;-80
2021/03/21 17:03:43;;;;;;;8.87;2.90;;;7.70;96.70;;;8.34;75.63;98447.28;5075873;28;20550;-80
2021/03/21 17:10:20;;;;;;;10.40;2.70;;;7.60;96.20;;;8.14;75.00;98438.97;5075470;28;20431;-79
2021/03/21 17:16:55;;;;;;;12.80;2.80;;;7.30;96.20;;;7.97;74.27;98432.09;5075497;28;20443;-80
2021/03/21 17:23:24;;;;;;;13.43;2.73;;;7.20;95.90;;;7.88;73.73;98433.09;5075233;28;20862;-80
2021/03/21 17:29:52;;;;;;;22.77;4.37;;;7.10;96.00;;;7.83;74.29;98437.94;5075518;28;20810;-79
2021/03/21 17:36:27;;;;;;;14.93;2.80;;;7.10;96.00;;;7.53;75.77;98440.13;5075074;28;20439;-79
2021/03/21 17:43:02;;;;;;;26.73;3.60;;;6.80;96.40;;;7.42;76.95;98447.44;5074916;28;20474;-80
2021/03/21 17:49:36;;;;;;;10.97;2.97;;;6.80;96.90;;;7.40;78.81;98450.16;5074849;28;20407;-80
2021/03/21 17:56:25;;;;;;;13.87;3.97;;;6.60;97.00;;;7.34;79.55;98465.59;5094674;28;20824;-80
2021/03/21 18:02:58;;;;;;;13.00;3.40;;;6.60;97.80;;;7.23;81.67;98464.09;5094774;28;20930;-79
2021/03/21 18:09:33;;;;;;;10.60;3.57;;;6.40;98.00;;;7.19;81.45;98475.75;5094430;28;20418;-80
2021/03/21 18:16:10;;;;;;;14.83;3.73;;;6.50;97.40;;;7.08;81.78;98478.63;5094701;28;20918;-79
2021/03/21 18:22:38;;;;;;;11.90;3.10;;;6.20;97.80;;;6.89;84.51;98477.06;5094537;28;20466;-80
2021/03/21 18:29:15;;;;;;;6.50;3.40;;;6.00;99.00;;;6.78;85.66;98484.28;5094206;28;20849;-80
2021/03/21 18:35:50;;;;;;;11.87;3.33;;;6.10;98.80;;;6.80;85.70;98482.38;5094164;28;20418;-79
2021/03/21 18:42:25;;;;;;;16.90;3.47;;;6.10;98.40;;;6.75;86.58;98492.41;5093980;28;20458;-81
2021/03/21 18:48:59;;;;;;;18.20;3.70;;;5.90;98.90;;;6.69;86.41;98491.22;5094228;28;20465;-79
2021/03/21 18:55:42;;;;;;;9.60;3.97;;;6.00;98.50;;;6.70;86.06;98492.03;5093827;28;20442;-80
2021/03/21 19:02:16;;;;;;;15.43;3.60;;;6.00;98.80;;;6.65;86.51;98502.06;5093740;28;20422;-80
2021/03/21 19:08:51;;;;;;;163.27;60.10;;;5.90;98.80;;;6.53;87.91;98511.88;5093424;28;20423;-80
2021/03/21 19:15:31;;;;;;;23.70;4.97;;;5.80;99.00;;;6.45;88.01;98517.84;5093760;28;20848;-80
2021/03/21 19:21:59;;;;;;;15.13;3.50;;;5.70;99.30;;;6.28;91.43;98529.00;5093538;28;20465;-79
2021/03/21 19:28:33;;;;;;;15.87;3.90;;;5.60;99.90;;;6.28;90.53;98533.41;5093063;28;20768;-79
2021/03/21 19:35:09;;;;;;;24.07;3.73;;;5.40;99.90;;;6.12;93.63;98539.25;5093354;28;20415;-79
2021/03/21 19:41:38;;;;;;;14.57;3.07;;;5.20;99.90;;;6.02;94.76;98541.91;5093025;28;20453;-79
2021/03/21 19:48:09;;;;;;;12.13;3.40;;;5.40;99.90;;;6.07;95.15;98554.47;5092781;28;20783;-79
2021/03/21 19:59:40;;;;;;;51.10;17.47;;;5.40;99.90;;;5.98;93.63;98547.53;5093146;28;20455;-79
2021/03/21 20:06:14;;;;;;;17.40;3.63;;;5.40;99.90;;;6.04;93.40;98568.53;5092927;28;20413;-79
2021/03/21 20:12:49;;;;;;;25.00;6.43;;;5.30;99.90;;;5.96;94.68;98578.03;5096918;28;20506;-79
2021/03/21 20:19:17;;;;;;;14.50;4.00;;;5.20;99.90;;;5.93;95.92;98565.34;5097152;28;20473;-79
2021/03/21 20:25:54;;;;;;;26.27;5.33;;;5.30;99.90;;;5.95;95.65;98568.59;5096567;28;20456;-79
2021/03/21 20:32:28;;;;;;;19.37;3.90;;;5.30;99.90;;;5.86;95.27;98566.88;5096251;28;20454;-79
2021/03/21 20:39:04;;;;;;;27.13;4.87;;;4.90;99.90;;;5.78;97.04;98571.91;5096206;28;21005;-79
2021/03/21 20:45:36;;;;;;;13.57;3.93;;;5.10;99.90;;;5.73;99.17;98574.13;5096223;28;20422;-80
2021/03/21 20:52:04;;;;;;;19.17;5.27;;;5.00;99.90;;;5.67;99.65;98575.53;5095974;28;20949;-79
2021/03/21 20:58:58;;;;;;;18.60;3.77;;;5.00;99.90;;;5.67;100.00;98590.25;5095960;28;20934;-79
2021/03/21 21:05:33;;;;;;;23.90;5.87;;;4.80;99.90;;;5.57;100.00;98585.94;5095866;28;20518;-79
2021/03/21 21:12:08;;;;;;;19.33;4.73;;;4.80;99.90;;;5.59;100.00;98596.97;5095659;28;20580;-79
2021/03/21 21:18:42;;;;;;;21.43;4.87;;;4.90;99.90;;;5.53;100.00;98597.56;5095702;28;20451;-79
2021/03/21 21:25:18;;;;;;;21.50;4.97;;;4.90;99.90;;;5.54;100.00;98601.78;5095409;28;20511;-79
2021/03/21 21:31:52;;;;;;;11.83;3.50;;;4.80;99.90;;;5.62;100.00;98602.84;5095592;28;20458;-79
2021/03/21 21:38:21;;;;;;;12.63;4.60;;;4.80;99.90;;;5.50;100.00;98604.78;5095580;28;20423;-79
2021/03/21 21:44:48;;;;;;;22.40;4.30;;;4.90;99.90;;;5.46;100.00;98613.81;5095334;28;20477;-81
2021/03/21 21:51:22;;;;;;;26.67;5.07;;;4.90;99.90;;;5.49;100.00;98609.16;5094813;28;20419;-82
2021/03/21 22:02:54;;;;;;;30.90;5.80;;;4.70;99.90;;;5.44;100.00;98616.56;5094813;28;20828;-79
2021/03/21 22:09:29;;;;;;;21.17;5.07;;;4.70;99.90;;;5.43;100.00;98614.91;5094563;28;20935;-80
2021/03/21 22:16:04;;;;;;;20.50;4.30;;;4.60;99.90;;;5.45;100.00;98619.94;5094566;28;20427;-79
2021/03/21 22:22:39;;;;;;;23.80;4.80;;;4.80;99.90;;;5.40;100.00;98615.19;5094370;28;20670;-79
2021/03/21 22:29:13;;;;;;;28.13;4.27;;;4.70;99.90;;;5.48;100.00;98623.06;5094261;28;20470;-79
2021/03/21 22:35:49;;;;;;;20.67;4.80;;;4.80;99.90;;;5.40;100.00;98619.56;5094165;28;20418;-79
2021/03/21 22:42:17;;;;;;;13.87;4.40;;;4.70;99.90;;;5.21;100.00;98619.59;5093902;28;20899;-79
2021/03/21 22:48:51;;;;;;;20.53;5.57;;;4.60;99.90;;;5.17;100.00;98621.66;5093999;28;20447;-79
2021/03/21 22:55:25;;;;;;;13.43;4.30;;;4.40;99.90;;;5.14;100.00;98614.16;5093633;28;20414;-79
2021/03/21 23:02:00;;;;;;;16.63;4.17;;;4.30;99.90;;;4.98;100.00;98614.72;5093306;28;20435;-79
2021/03/21 23:08:34;;;;;;;10.77;3.50;;;4.40;99.90;;;5.11;100.00;98614.44;5093183;28;20556;-79
2021/03/21 23:15:10;;;;;;;13.87;4.77;;;4.30;99.90;;;4.97;100.00;98617.44;5093304;28;20430;-79
2021/03/21 23:21:45;;;;;;;18.40;3.93;;;4.20;99.90;;;4.85;100.00;98626.31;5093164;28;20525;-79
2021/03/21 23:28:16;;;;;;;17.57;4.47;;;3.90;99.90;;;4.69;100.00;98623.44;5092962;28;20509;-79
2021/03/21 23:34:50;;;;;;;14.97;3.80;;;3.70;99.90;;;4.45;100.00;98622.06;5092936;28;20807;-79
2021/03/21 23:41:26;;;;;;;11.83;4.10;;;3.60;99.90;;;4.44;100.00;98620.41;5092827;28;20431;-79
2021/03/21 23:48:00;;;;;;;17.13;4.10;;;3.40;99.90;;;4.39;100.00;98620.03;5092816;28;20434;-79
2021/03/21 23:54:28;;;;;;;13.03;3.53;;;3.50;99.90;;;4.40;100.00;98623.44;5092763;28;20502;-79
